Time;durP1;ratioP1;P1;durP2;ratioP2;P2;SDS_P1;SDS_P2;PMS_P1;PMS_P2;Temp;Humidity;BMP_temperature;BMP_pressure;BME280_temperature;BME280_humidity;BME280_pressure;Samples;Min_cycle;Max_cycle;Signal;HPM_P1;HPM_P2
2023/06/06 00:01:05;;;;;;;0.10;0.10;;;12.30;99.90;;;;;;5085659;28;20195;-83
2023/06/06 00:03:31;;;;;;;0.10;0.10;;;12.30;99.90;;;;;;5074526;28;20208;-83
2023/06/06 00:05:59;;;;;;;0.10;0.10;;;12.30;99.90;;;;;;5054434;28;20867;-83
2023/06/06 00:08:25;;;;;;;0.20;0.20;;;12.10;99.90;;;;;;5051937;28;20562;-83
2023/06/06 00:10:51;;;;;;;0.10;0.10;;;12.30;99.90;;;;;;5070849;28;20507;-83
2023/06/06 00:13:18;;;;;;;0.10;0.10;;;12.20;99.90;;;;;;5051741;28;20425;-84
2023/06/06 00:15:44;;;;;;;0.20;0.20;;;12.30;99.90;;;;;;5057512;28;20433;-83
2023/06/06 00:18:11;;;;;;;0.10;0.10;;;12.30;99.90;;;;;;5072042;28;20473;-83
2023/06/06 00:20:38;;;;;;;0.10;0.10;;;12.30;99.90;;;;;;5053249;28;20487;-84
2023/06/06 00:23:06;;;;;;;0.10;0.10;;;12.30;99.90;;;;;;5070398;28;20456;-84
2023/06/06 00:25:31;;;;;;;0.10;0.10;;;12.20;99.90;;;;;;5052660;28;20829;-84
2023/06/06 00:27:57;;;;;;;0.20;0.20;;;12.20;99.90;;;;;;5070584;28;20456;-84
2023/06/06 00:30:23;;;;;;;0.10;0.10;;;12.10;99.90;;;;;;5070491;28;20769;-84
2023/06/06 00:32:48;;;;;;;0.10;0.10;;;12.10;99.90;;;;;;5069719;28;20208;-83
2023/06/06 00:35:14;;;;;;;0.10;0.10;;;12.10;99.90;;;;;;5067312;28;20205;-83
2023/06/06 00:37:39;;;;;;;0.10;0.10;;;11.90;99.90;;;;;;5074517;28;20640;-84
2023/06/06 00:40:07;;;;;;;0.20;0.20;;;12.10;99.90;;;;;;5077071;28;20628;-83
2023/06/06 00:42:32;;;;;;;0.10;0.10;;;12.00;99.90;;;;;;5064277;28;20248;-80
2023/06/06 00:44:58;;;;;;;0.10;0.10;;;11.90;99.90;;;;;;5071043;28;20417;-83
2023/06/06 00:47:23;;;;;;;0.10;0.10;;;12.10;99.90;;;;;;5078899;28;21033;-81
2023/06/06 00:49:51;;;;;;;0.20;0.20;;;11.90;99.90;;;;;;5072385;28;20196;-83
2023/06/06 00:52:17;;;;;;;0.20;0.20;;;11.80;99.90;;;;;;5070821;28;20174;-83
2023/06/06 00:54:43;;;;;;;0.10;0.10;;;11.80;99.90;;;;;;5052709;28;20448;-83
2023/06/06 00:57:09;;;;;;;0.20;0.20;;;11.80;99.90;;;;;;5070694;28;20812;-84
2023/06/06 00:59:36;;;;;;;0.10;0.10;;;11.70;99.90;;;;;;5063529;28;20510;-83
2023/06/06 01:18:53;;;;;;;0.20;0.20;;;11.50;99.90;;;;;;5074604;28;20465;-83
2023/06/06 01:21:19;;;;;;;0.13;0.13;;;11.50;99.90;;;;;;5065575;28;20452;-82
2023/06/06 01:23:45;;;;;;;0.20;0.20;;;11.50;99.90;;;;;;5050875;28;20447;-83
2023/06/06 01:26:12;;;;;;;0.10;0.10;;;11.50;99.90;;;;;;5070594;28;20424;-82
2023/06/06 01:28:38;;;;;;;0.10;0.10;;;11.50;99.90;;;;;;5050128;28;20186;-83
2023/06/06 01:31:09;;;;;;;0.10;0.10;;;11.30;99.90;;;;;;5062457;28;20538;-82
2023/06/06 01:33:44;;;;;;;0.10;0.10;;;11.30;99.90;;;;;;5049962;28;20913;-83
2023/06/06 01:36:31;;;;;;;0.10;0.10;;;11.50;99.90;;;;;;5050291;28;20486;-82
2023/06/06 01:39:06;;;;;;;0.10;0.10;;;11.60;99.90;;;;;;5066139;28;20558;-82
2023/06/06 01:41:35;;;;;;;0.10;0.10;;;11.60;99.90;;;;;;5050412;28;20454;-82
2023/06/06 01:44:01;;;;;;;0.10;0.10;;;11.50;99.90;;;;;;5053779;28;20432;-82
2023/06/06 01:46:28;;;;;;;0.17;0.17;;;11.50;99.90;;;;;;5066586;28;20493;-82
2023/06/06 01:48:54;;;;;;;0.10;0.10;;;11.40;99.90;;;;;;5054218;28;20947;-83
2023/06/06 01:51:19;;;;;;;0.20;0.20;;;11.40;99.90;;;;;;5049243;28;20447;-83
2023/06/06 01:53:45;;;;;;;0.10;0.10;;;11.30;99.90;;;;;;5069196;28;20436;-82
2023/06/06 01:56:13;;;;;;;0.20;0.20;;;11.30;99.90;;;;;;5051344;28;20224;-82
2023/06/06 01:58:41;;;;;;;0.20;0.20;;;11.20;99.90;;;;;;5067984;28;20565;-81
2023/06/06 02:01:08;;;;;;;0.20;0.20;;;11.30;99.90;;;;;;5068732;28;20456;-82
2023/06/06 02:03:34;;;;;;;0.20;0.20;;;11.30;99.90;;;;;;5069815;28;20432;-82
2023/06/06 02:06:01;;;;;;;0.20;0.20;;;11.20;99.90;;;;;;5050088;28;20458;-82
2023/06/06 02:08:26;;;;;;;0.20;0.20;;;11.20;99.90;;;;;;5051989;28;20446;-82
2023/06/06 02:10:52;;;;;;;0.20;0.20;;;11.20;99.90;;;;;;5049906;28;20538;-83
2023/06/06 02:13:17;;;;;;;0.10;0.10;;;11.20;99.90;;;;;;5068905;28;20181;-83
2023/06/06 02:15:43;;;;;;;0.10;0.10;;;11.40;99.90;;;;;;5069491;28;20182;-83
2023/06/06 02:18:08;;;;;;;0.20;0.20;;;11.50;99.90;;;;;;5052752;28;20265;-82
2023/06/06 02:20:34;;;;;;;0.20;0.20;;;11.40;99.90;;;;;;5067805;28;20316;-82
2023/06/06 02:23:00;;;;;;;0.20;0.20;;;11.20;99.90;;;;;;5061079;28;20187;-83
2023/06/06 02:25:26;;;;;;;0.10;0.10;;;11.10;99.90;;;;;;5067827;28;20181;-82
2023/06/06 02:27:53;;;;;;;0.10;0.10;;;10.90;99.90;;;;;;5067611;28;20448;-82
2023/06/06 02:30:19;;;;;;;0.20;0.20;;;11.00;99.90;;;;;;5049048;28;20455;-82
2023/06/06 02:32:45;;;;;;;0.10;0.10;;;10.90;99.90;;;;;;5068680;28;20452;-82
2023/06/06 02:35:10;;;;;;;0.17;0.17;;;10.80;99.90;;;;;;5069900;28;20442;-82
2023/06/06 02:37:36;;;;;;;0.20;0.20;;;10.80;99.90;;;;;;5069845;28;20194;-83
2023/06/06 02:40:10;;;;;;;0.20;0.20;;;10.80;99.90;;;;;;5061343;28;20383;-82
2023/06/06 02:42:38;;;;;;;0.20;0.20;;;10.70;99.90;;;;;;5067532;28;20189;-82
2023/06/06 02:45:05;;;;;;;0.20;0.20;;;10.60;99.90;;;;;;5067555;28;21012;-83
2023/06/06 02:47:30;;;;;;;0.20;0.20;;;10.50;99.90;;;;;;5049476;28;20444;-83
2023/06/06 02:49:56;;;;;;;0.20;0.20;;;10.60;99.90;;;;;;5050442;28;20439;-83
2023/06/06 02:52:22;;;;;;;0.20;0.20;;;10.60;99.90;;;;;;5074089;28;20190;-82
2023/06/06 02:54:47;;;;;;;0.20;0.20;;;10.60;99.90;;;;;;5057296;28;20716;-82
2023/06/06 02:57:13;;;;;;;0.20;0.20;;;10.50;99.90;;;;;;5050436;28;20523;-82
2023/06/06 02:59:38;;;;;;;0.20;0.20;;;10.50;99.90;;;;;;5067690;28;20233;-82
2023/06/06 03:02:04;;;;;;;0.20;0.20;;;10.50;99.90;;;;;;5068655;28;20541;-82
2023/06/06 03:04:29;;;;;;;0.20;0.20;;;10.50;99.90;;;;;;5077963;28;20225;-82
2023/06/06 03:06:56;;;;;;;0.20;0.20;;;10.50;99.90;;;;;;5072819;28;20660;-82
2023/06/06 03:09:24;;;;;;;0.20;0.20;;;10.50;99.90;;;;;;5073270;28;20238;-82
2023/06/06 03:11:49;;;;;;;0.20;0.10;;;10.50;99.90;;;;;;5077789;28;20789;-82
2023/06/06 03:14:15;;;;;;;0.20;0.20;;;10.60;99.90;;;;;;5053529;28;20436;-82
2023/06/06 03:16:41;;;;;;;0.20;0.20;;;10.60;99.90;;;;;;5053523;28;20244;-82
2023/06/06 03:19:07;;;;;;;0.20;0.20;;;10.50;99.90;;;;;;5070050;28;20202;-82
2023/06/06 03:21:36;;;;;;;0.10;0.10;;;10.70;99.90;;;;;;5073722;28;20457;-82
2023/06/06 03:24:02;;;;;;;0.20;0.20;;;10.70;99.90;;;;;;5087553;28;20260;-82
2023/06/06 03:26:28;;;;;;;0.20;0.20;;;10.60;99.90;;;;;;5092381;28;20438;-82
2023/06/06 03:28:56;;;;;;;0.20;0.20;;;10.50;99.90;;;;;;5090977;28;20439;-82
2023/06/06 03:31:23;;;;;;;0.20;0.20;;;10.50;99.90;;;;;;5077717;28;20190;-82
2023/06/06 03:33:52;;;;;;;0.20;0.20;;;10.60;99.90;;;;;;5071136;28;20949;-82
2023/06/06 03:36:19;;;;;;;0.20;0.20;;;10.50;99.90;;;;;;5072612;28;20920;-82
2023/06/06 03:38:45;;;;;;;0.20;0.20;;;10.60;99.90;;;;;;5074490;28;20520;-82
2023/06/06 03:41:10;;;;;;;0.20;0.20;;;10.70;99.90;;;;;;5073705;28;20536;-82
2023/06/06 03:43:36;;;;;;;0.20;0.20;;;10.80;99.90;;;;;;5052017;28;20192;-82
2023/06/06 03:46:01;;;;;;;0.20;0.20;;;10.80;99.90;;;;;;5045905;28;20186;-82
2023/06/06 03:48:27;;;;;;;0.20;0.20;;;10.80;99.90;;;;;;5069680;28;20190;-82
2023/06/06 03:50:53;;;;;;;0.17;0.17;;;10.90;99.90;;;;;;5066348;28;20183;-80
2023/06/06 03:53:18;;;;;;;0.20;0.20;;;10.80;99.90;;;;;;5053425;28;20196;-82
2023/06/06 03:55:44;;;;;;;0.20;0.20;;;10.90;99.90;;;;;;5068297;28;20222;-82
2023/06/06 03:58:10;;;;;;;0.20;0.20;;;10.90;99.90;;;;;;5076147;28;20231;-82
2023/06/06 04:00:37;;;;;;;0.20;0.20;;;10.90;99.90;;;;;;5074268;28;20545;-82
2023/06/06 04:03:03;;;;;;;0.20;0.20;;;11.00;99.90;;;;;;5070263;28;20506;-82
2023/06/06 04:05:32;;;;;;;0.20;0.20;;;10.90;99.90;;;;;;5071427;28;20439;-82
2023/06/06 04:07:59;;;;;;;0.20;0.20;;;11.00;99.90;;;;;;5054112;28;20467;-82
2023/06/06 04:10:24;;;;;;;0.20;0.20;;;11.00;99.90;;;;;;5052928;28;20884;-82
2023/06/06 04:12:50;;;;;;;0.20;0.20;;;11.00;99.90;;;;;;5052190;28;20455;-82
2023/06/06 04:15:16;;;;;;;0.20;0.20;;;11.10;99.90;;;;;;5067987;28;20236;-81
2023/06/06 04:17:42;;;;;;;0.20;0.20;;;11.00;99.90;;;;;;5068956;28;20483;-82
2023/06/06 04:20:08;;;;;;;0.20;0.20;;;11.00;99.90;;;;;;5074601;28;20769;-82
2023/06/06 04:22:35;;;;;;;0.10;0.10;;;11.00;99.90;;;;;;5074582;28;20303;-82
2023/06/06 04:25:01;;;;;;;0.20;0.20;;;11.10;99.90;;;;;;5071292;28;20435;-82
2023/06/06 04:27:27;;;;;;;0.20;0.20;;;11.20;99.90;;;;;;5053375;28;20430;-82
2023/06/06 04:29:52;;;;;;;0.20;0.20;;;11.10;99.90;;;;;;5051267;28;20193;-81
2023/06/06 04:32:19;;;;;;;0.20;0.20;;;11.30;99.90;;;;;;5067090;28;20186;-80
2023/06/06 04:34:45;;;;;;;0.10;0.10;;;11.30;99.90;;;;;;5049634;28;20243;-81
2023/06/06 04:37:14;;;;;;;0.20;0.20;;;11.30;99.90;;;;;;5068857;28;20436;-82
2023/06/06 04:39:41;;;;;;;0.20;0.20;;;11.30;99.90;;;;;;5076567;28;20852;-81
2023/06/06 04:42:07;;;;;;;0.20;0.20;;;11.40;99.90;;;;;;5074016;28;20511;-81
2023/06/06 04:44:33;;;;;;;0.20;0.20;;;11.40;99.90;;;;;;5070683;28;20435;-82
2023/06/06 04:47:03;;;;;;;0.20;0.10;;;11.50;99.90;;;;;;5048977;28;20436;-82
2023/06/06 04:49:39;;;;;;;0.13;0.10;;;11.40;99.90;;;;;;5083459;28;20957;-82
2023/06/06 04:52:06;;;;;;;0.20;0.20;;;11.60;99.90;;;;;;5087718;28;20461;-81
2023/06/06 04:54:33;;;;;;;0.10;0.10;;;11.60;99.90;;;;;;5072655;28;20416;-82
2023/06/06 04:56:59;;;;;;;0.10;0.10;;;11.70;99.90;;;;;;5058494;28;20436;-82
2023/06/06 04:59:24;;;;;;;0.10;0.10;;;11.70;99.90;;;;;;5053444;28;20991;-82
2023/06/06 05:01:51;;;;;;;0.10;0.10;;;11.80;99.90;;;;;;5068095;28;20440;-82
2023/06/06 05:04:17;;;;;;;0.10;0.10;;;11.90;99.90;;;;;;5067783;28;20212;-82
2023/06/06 05:06:43;;;;;;;0.10;0.10;;;11.90;99.90;;;;;;5046145;28;20464;-82
2023/06/06 05:09:09;;;;;;;0.10;0.10;;;12.00;99.90;;;;;;5060862;28;20455;-82
2023/06/06 05:11:35;;;;;;;0.10;0.10;;;12.10;99.90;;;;;;5068488;28;20435;-82
2023/06/06 05:14:01;;;;;;;0.10;0.10;;;12.20;99.90;;;;;;5045704;28;20197;-81
2023/06/06 05:16:27;;;;;;;0.10;0.10;;;12.30;99.90;;;;;;5057255;28;20189;-81
2023/06/06 05:18:53;;;;;;;0.10;0.10;;;12.40;99.90;;;;;;5050771;28;20478;-81
2023/06/06 05:21:19;;;;;;;0.10;0.10;;;12.60;99.90;;;;;;5041819;28;20220;-81
2023/06/06 05:23:45;;;;;;;0.10;0.10;;;12.70;99.90;;;;;;5051944;28;20500;-82
2023/06/06 05:26:11;;;;;;;0.10;0.10;;;12.80;99.90;;;;;;5067909;28;20444;-81
2023/06/06 05:28:38;;;;;;;0.10;0.10;;;12.80;99.90;;;;;;5067272;28;20189;-82
2023/06/06 05:31:07;;;;;;;0.10;0.10;;;13.00;99.90;;;;;;5062353;28;20210;-82
2023/06/06 05:33:33;;;;;;;0.10;0.10;;;13.10;99.90;;;;;;5066053;28;20442;-80
2023/06/06 05:36:00;;;;;;;0.10;0.10;;;13.10;99.90;;;;;;5070231;28;20476;-78
2023/06/06 05:38:26;;;;;;;0.10;0.10;;;13.20;99.90;;;;;;5065967;28;20478;-79
2023/06/06 05:40:51;;;;;;;0.10;0.10;;;13.30;99.90;;;;;;5078649;28;20612;-79
2023/06/06 05:43:17;;;;;;;0.10;0.10;;;13.30;99.90;;;;;;5066342;28;20228;-79
2023/06/06 05:45:42;;;;;;;0.10;0.10;;;13.40;99.90;;;;;;5064106;28;21920;-79
2023/06/06 05:48:08;;;;;;;0.10;0.10;;;13.40;99.90;;;;;;5076235;28;20184;-78
2023/06/06 05:50:34;;;;;;;0.10;0.10;;;13.60;99.90;;;;;;5066483;28;20225;-79
2023/06/06 05:53:01;;;;;;;0.10;0.10;;;13.70;99.90;;;;;;5049354;28;20538;-79
2023/06/06 05:55:35;;;;;;;0.10;0.10;;;13.80;99.90;;;;;;5060937;28;20190;-78
2023/06/06 05:58:01;;;;;;;0.10;0.10;;;13.80;99.90;;;;;;5065413;28;20555;-79
2023/06/06 06:00:30;;;;;;;0.10;0.10;;;13.90;99.90;;;;;;5049624;28;20487;-78
2023/06/06 06:02:57;;;;;;;0.10;0.10;;;13.90;99.90;;;;;;5049014;28;20440;-79
2023/06/06 06:05:27;;;;;;;0.10;0.10;;;14.00;99.90;;;;;;5067974;28;20479;-80
2023/06/06 06:08:00;;;;;;;0.10;0.10;;;14.20;99.90;;;;;;5076056;28;21007;-79
2023/06/06 06:10:36;;;;;;;0.10;0.10;;;14.30;99.90;;;;;;5069318;28;20531;-79
2023/06/06 06:13:03;;;;;;;0.10;0.10;;;14.10;99.90;;;;;;5080635;28;20434;-79
2023/06/06 06:15:33;;;;;;;0.10;0.10;;;14.30;99.90;;;;;;5076667;28;20506;-79
2023/06/06 06:18:00;;;;;;;0.10;0.10;;;14.30;99.90;;;;;;5066881;28;20594;-80
2023/06/06 06:20:26;;;;;;;0.10;0.10;;;14.40;99.90;;;;;;5070218;28;20478;-79
2023/06/06 06:22:51;;;;;;;0.10;0.10;;;14.30;99.90;;;;;;5055535;28;20442;-80
2023/06/06 06:25:17;;;;;;;0.10;0.10;;;14.40;99.90;;;;;;5066686;28;20477;-80
2023/06/06 06:27:44;;;;;;;0.10;0.10;;;14.50;99.90;;;;;;5070856;28;20546;-79
2023/06/06 06:30:11;;;;;;;0.10;0.10;;;14.50;99.90;;;;;;5064038;28;20272;-78
2023/06/06 06:32:40;;;;;;;0.10;0.10;;;14.60;99.90;;;;;;5044569;28;20474;-78
2023/06/06 06:35:06;;;;;;;0.10;0.10;;;14.70;99.90;;;;;;5068669;28;20443;-80
2023/06/06 06:37:36;;;;;;;0.10;0.10;;;14.60;99.90;;;;;;5069977;28;21051;-80
2023/06/06 06:40:05;;;;;;;0.10;0.10;;;14.60;99.90;;;;;;5061606;28;20487;-79
2023/06/06 06:42:31;;;;;;;0.10;0.10;;;14.80;99.90;;;;;;5062379;28;20439;-79
2023/06/06 06:44:56;;;;;;;0.10;0.10;;;15.00;99.90;;;;;;5081002;28;20791;-83
2023/06/06 06:47:22;;;;;;;0.10;0.10;;;15.00;99.90;;;;;;5072459;28;20190;-82
2023/06/06 06:49:48;;;;;;;0.10;0.10;;;15.00;99.90;;;;;;5071548;28;20794;-84
2023/06/06 06:52:17;;;;;;;0.10;0.10;;;15.00;99.90;;;;;;5074980;28;20186;-83
2023/06/06 06:54:52;;;;;;;0.10;0.10;;;15.20;99.90;;;;;;5067222;28;20448;-84
2023/06/06 06:57:19;;;;;;;0.10;0.10;;;15.30;99.90;;;;;;5067016;28;20455;-83
2023/06/06 06:59:45;;;;;;;0.10;0.10;;;15.60;99.90;;;;;;5068440;28;20479;-83
2023/06/06 07:02:11;;;;;;;0.10;0.10;;;15.50;99.90;;;;;;5066559;28;20452;-81
2023/06/06 07:04:37;;;;;;;0.10;0.10;;;15.70;99.90;;;;;;5068689;28;20447;-84
2023/06/06 07:07:03;;;;;;;0.10;0.10;;;15.90;99.90;;;;;;5065041;28;20186;-84
2023/06/06 07:09:28;;;;;;;0.10;0.10;;;15.80;99.90;;;;;;5061994;28;20654;-84
2023/06/06 07:11:54;;;;;;;0.10;0.10;;;15.80;99.90;;;;;;5073341;28;20439;-83
2023/06/06 07:14:20;;;;;;;0.10;0.10;;;15.80;99.90;;;;;;5081351;28;20194;-83
2023/06/06 07:16:48;;;;;;;0.10;0.10;;;15.80;99.90;;;;;;5067991;28;20179;-83
2023/06/06 07:19:14;;;;;;;0.10;0.10;;;15.70;99.90;;;;;;5053993;28;20468;-83
2023/06/06 07:21:39;;;;;;;0.10;0.10;;;16.00;99.90;;;;;;5052398;28;20539;-83
2023/06/06 07:24:05;;;;;;;0.10;0.10;;;16.30;99.90;;;;;;5072603;28;20177;-84
2023/06/06 07:26:31;;;;;;;0.10;0.10;;;16.50;99.90;;;;;;5052227;28;20186;-84
2023/06/06 07:28:56;;;;;;;0.10;0.10;;;16.60;99.90;;;;;;5068669;28;20193;-84
2023/06/06 07:31:22;;;;;;;0.10;0.10;;;16.50;99.90;;;;;;5069292;28;20197;-83
2023/06/06 07:33:48;;;;;;;0.10;0.10;;;16.60;99.90;;;;;;5060461;28;20197;-82
2023/06/06 07:36:14;;;;;;;0.10;0.10;;;16.50;99.90;;;;;;5055653;28;20224;-83
2023/06/06 07:38:39;;;;;;;0.10;0.10;;;16.60;99.90;;;;;;5071684;28;20486;-83
2023/06/06 07:41:05;;;;;;;0.10;0.10;;;16.60;99.90;;;;;;5052256;28;20249;-83
2023/06/06 07:43:31;;;;;;;0.10;0.10;;;16.80;99.90;;;;;;5050844;28;20186;-83
2023/06/06 07:45:56;;;;;;;0.10;0.10;;;16.70;99.90;;;;;;5071245;28;20201;-83
2023/06/06 07:48:22;;;;;;;0.10;0.10;;;16.80;99.90;;;;;;5087370;28;20216;-83
2023/06/06 07:50:47;;;;;;;0.10;0.10;;;16.70;99.90;;;;;;5077825;28;20264;-84
2023/06/06 07:53:13;;;;;;;0.10;0.10;;;16.60;99.90;;;;;;5067953;28;20176;-83
2023/06/06 07:55:38;;;;;;;0.10;0.10;;;16.70;99.90;;;;;;5069545;28;20186;-83
2023/06/06 07:58:10;;;;;;;0.10;0.10;;;16.90;99.90;;;;;;5076783;28;20250;-83
2023/06/06 08:00:36;;;;;;;0.10;0.10;;;17.20;99.90;;;;;;5072247;28;20217;-83
2023/06/06 08:03:01;;;;;;;0.10;0.10;;;17.30;99.90;;;;;;5065942;28;20436;-82
2023/06/06 08:05:27;;;;;;;0.10;0.10;;;17.20;99.90;;;;;;5049820;28;20829;-83
2023/06/06 08:07:53;;;;;;;0.10;0.10;;;17.40;99.90;;;;;;5074574;28;20194;-83
2023/06/06 08:10:18;;;;;;;0.10;0.10;;;17.70;99.90;;;;;;5069109;28;20239;-82
2023/06/06 08:12:44;;;;;;;0.10;0.10;;;17.40;99.90;;;;;;5054197;28;20188;-83
2023/06/06 08:15:10;;;;;;;0.10;0.10;;;17.70;99.90;;;;;;5065185;28;20193;-82
2023/06/06 08:17:36;;;;;;;0.10;0.10;;;17.90;99.90;;;;;;5070181;28;20443;-82
2023/06/06 08:20:05;;;;;;;0.10;0.10;;;18.00;99.90;;;;;;5071316;28;20507;-82
2023/06/06 08:22:33;;;;;;;0.10;0.10;;;17.80;99.90;;;;;;5055819;28;20296;-82
2023/06/06 08:25:04;;;;;;;0.10;0.10;;;18.20;99.90;;;;;;5068385;28;20440;-80
2023/06/06 08:27:30;;;;;;;0.10;0.10;;;18.00;99.90;;;;;;5067327;28;20433;-82
2023/06/06 08:29:56;;;;;;;0.10;0.10;;;18.60;99.90;;;;;;5070418;28;20455;-81
2023/06/06 08:32:21;;;;;;;0.10;0.10;;;18.70;99.90;;;;;;5065997;28;20435;-81
2023/06/06 08:34:47;;;;;;;0.10;0.10;;;18.90;99.90;;;;;;5071941;28;20184;-82
2023/06/06 08:37:12;;;;;;;0.10;0.10;;;19.30;99.90;;;;;;5070194;28;20178;-82
2023/06/06 08:39:38;;;;;;;0.10;0.10;;;19.00;99.90;;;;;;5064901;28;20201;-83
2023/06/06 08:42:09;;;;;;;0.10;0.00;;;19.40;99.90;;;;;;5064099;28;20227;-82
2023/06/06 08:44:35;;;;;;;0.10;0.00;;;19.30;99.90;;;;;;5066675;28;20859;-83
2023/06/06 08:47:02;;;;;;;0.10;0.10;;;19.10;99.90;;;;;;5049508;28;20474;-80
2023/06/06 08:49:30;;;;;;;0.10;0.00;;;19.00;99.90;;;;;;5067348;28;20854;-82
2023/06/06 08:51:58;;;;;;;0.10;0.10;;;19.20;99.90;;;;;;5080542;28;20519;-83
2023/06/06 08:54:25;;;;;;;0.10;0.00;;;19.30;99.90;;;;;;5054649;28;20527;-83
2023/06/06 08:56:51;;;;;;;0.10;0.00;;;19.70;99.90;;;;;;5066451;28;20433;-83
2023/06/06 08:59:18;;;;;;;0.10;0.00;;;19.90;99.90;;;;;;5066934;28;20537;-84
2023/06/06 09:01:44;;;;;;;0.10;0.10;;;19.40;99.90;;;;;;5065283;28;20538;-82
2023/06/06 09:04:13;;;;;;;0.10;0.00;;;19.80;99.90;;;;;;5048897;28;20566;-82
2023/06/06 09:06:43;;;;;;;0.10;0.10;;;19.90;99.90;;;;;;5048292;28;20432;-82
2023/06/06 09:09:09;;;;;;;0.10;0.10;;;20.30;99.90;;;;;;5083504;28;20476;-81
2023/06/06 09:11:36;;;;;;;0.10;0.00;;;20.50;99.90;;;;;;5067537;28;20813;-82
2023/06/06 09:14:03;;;;;;;0.10;0.10;;;19.90;99.90;;;;;;5064379;28;20444;-83
2023/06/06 09:16:29;;;;;;;0.10;0.00;;;20.50;99.90;;;;;;5066687;28;20518;-83
2023/06/06 09:18:59;;;;;;;0.10;0.00;;;20.90;99.90;;;;;;5084661;28;20434;-83
2023/06/06 09:21:29;;;;;;;0.10;0.00;;;20.70;99.90;;;;;;5069939;28;20186;-83
2023/06/06 09:23:54;;;;;;;0.10;0.00;;;20.50;99.90;;;;;;5070274;28;20486;-82
2023/06/06 09:26:21;;;;;;;0.10;0.00;;;20.70;99.90;;;;;;5042388;28;20457;-82
2023/06/06 09:28:47;;;;;;;0.10;0.00;;;21.20;99.90;;;;;;5064903;28;20248;-83
2023/06/06 09:31:30;;;;;;;0.10;0.00;;;21.10;99.90;;;;;;5049905;28;20480;-84
2023/06/06 09:33:59;;;;;;;0.10;0.00;;;21.10;99.90;;;;;;5049236;28;20482;-82
2023/06/06 09:36:30;;;;;;;0.10;0.00;;;21.40;99.90;;;;;;5047083;28;20440;-83
2023/06/06 09:39:04;;;;;;;0.10;0.00;;;21.50;99.90;;;;;;5073953;28;20521;-82
2023/06/06 09:41:29;;;;;;;0.10;0.00;;;21.40;99.90;;;;;;5067787;28;20491;-83
2023/06/06 09:43:55;;;;;;;0.10;0.00;;;21.70;99.90;;;;;;5070868;28;20525;-83
2023/06/06 09:46:21;;;;;;;0.10;0.00;;;21.90;99.90;;;;;;5066914;28;20200;-83
2023/06/06 09:48:59;;;;;;;0.00;0.00;;;22.10;99.90;;;;;;5060697;28;20625;-83
2023/06/06 09:51:25;;;;;;;0.00;0.00;;;22.30;99.90;;;;;;5063806;28;20208;-83
2023/06/06 09:53:51;;;;;;;0.00;0.00;;;22.30;99.90;;;;;;5067368;28;20951;-84
2023/06/06 09:56:22;;;;;;;0.00;0.00;;;22.80;99.90;;;;;;5052289;28;20285;-82
2023/06/06 09:58:55;;;;;;;0.00;0.00;;;22.70;99.90;;;;;;5068509;28;20471;-83
2023/06/06 10:01:26;;;;;;;0.00;0.00;;;23.10;99.90;;;;;;5068026;28;20462;-83
2023/06/06 10:03:55;;;;;;;0.00;0.00;;;23.30;99.90;;;;;;5077600;28;20759;-85
2023/06/06 10:06:21;;;;;;;0.00;0.00;;;23.20;99.90;;;;;;5061196;28;20453;-83
2023/06/06 10:08:48;;;;;;;0.00;0.00;;;22.50;99.90;;;;;;5068454;28;20462;-84
2023/06/06 10:11:14;;;;;;;0.00;0.00;;;23.10;99.90;;;;;;5065728;28;20635;-84
2023/06/06 10:13:40;;;;;;;0.00;0.00;;;23.30;99.90;;;;;;5058900;28;20467;-83
2023/06/06 10:16:07;;;;;;;0.00;0.00;;;23.60;99.90;;;;;;5069498;28;20451;-83
2023/06/06 10:18:33;;;;;;;0.00;0.00;;;23.60;99.90;;;;;;5073227;28;20823;-83
2023/06/06 10:21:02;;;;;;;0.00;0.00;;;23.50;99.90;;;;;;5068255;28;20480;-84
2023/06/06 10:23:27;;;;;;;0.00;0.00;;;23.50;99.90;;;;;;5068675;28;20459;-82
2023/06/06 10:25:55;;;;;;;0.00;0.00;;;23.90;99.90;;;;;;5072382;28;20443;-82
2023/06/06 10:28:29;;;;;;;0.00;0.00;;;24.10;99.90;;;;;;5069102;28;20672;-81
2023/06/06 10:31:08;;;;;;;0.00;0.00;;;24.00;99.90;;;;;;5069107;28;20487;-83
2023/06/06 10:33:44;;;;;;;0.00;0.00;;;24.50;99.90;;;;;;5069545;28;20436;-82
2023/06/06 10:36:17;;;;;;;0.00;0.00;;;24.70;99.90;;;;;;5055922;28;20454;-81
2023/06/06 10:39:17;;;;;;;0.00;0.00;;;24.40;99.90;;;;;;5078676;28;20470;-83
2023/06/06 10:41:51;;;;;;;0.00;0.00;;;23.60;99.90;;;;;;5058846;28;20981;-81
2023/06/06 10:44:20;;;;;;;0.00;0.00;;;24.40;99.90;;;;;;5075310;28;20444;-81
2023/06/06 10:46:48;;;;;;;0.00;0.00;;;24.90;99.90;;;;;;5079680;28;20435;-83
2023/06/06 10:49:14;;;;;;;0.00;0.00;;;24.90;99.90;;;;;;5076223;28;20443;-82
2023/06/06 10:51:40;;;;;;;0.00;0.00;;;25.10;99.90;;;;;;5054330;28;20981;-83
2023/06/06 10:54:19;;;;;;;0.00;0.00;;;25.80;99.90;;;;;;5052494;28;20182;-82
2023/06/06 10:56:55;;;;;;;0.00;0.00;;;26.30;99.90;;;;;;5070397;28;20188;-83
2023/06/06 10:59:24;;;;;;;0.10;0.00;;;26.40;99.90;;;;;;5071004;28;20978;-83
2023/06/06 11:01:50;;;;;;;0.00;0.00;;;26.90;99.90;;;;;;5053135;28;20451;-83
2023/06/06 11:04:17;;;;;;;0.00;0.00;;;25.90;99.90;;;;;;5071381;28;20792;-84
2023/06/06 11:06:43;;;;;;;0.00;0.00;;;26.30;99.90;;;;;;5069263;28;20489;-85
2023/06/06 11:09:19;;;;;;;0.00;0.00;;;25.60;99.90;;;;;;5060964;28;20426;-82
2023/06/06 11:11:45;;;;;;;0.00;0.00;;;25.50;99.90;;;;;;5073340;28;20446;-83
2023/06/06 11:14:11;;;;;;;0.00;0.00;;;26.20;99.90;;;;;;5075051;28;20431;-82
2023/06/06 11:16:39;;;;;;;0.00;0.00;;;26.90;99.90;;;;;;5072726;28;20197;-83
2023/06/06 11:19:06;;;;;;;0.00;0.00;;;26.10;99.90;;;;;;5075913;28;20592;-83
2023/06/06 11:21:38;;;;;;;0.00;0.00;;;26.70;99.90;;;;;;5070263;28;20543;-84
2023/06/06 11:24:05;;;;;;;0.00;0.00;;;27.00;99.90;;;;;;5069757;28;20455;-83
2023/06/06 11:26:35;;;;;;;0.00;0.00;;;27.70;99.90;;;;;;5069972;28;20461;-84
2023/06/06 11:29:02;;;;;;;0.00;0.00;;;27.30;99.90;;;;;;5062662;28;20543;-83
2023/06/06 11:31:28;;;;;;;0.00;0.00;;;27.00;99.90;;;;;;5051031;28;20433;-85
2023/06/06 11:34:06;;;;;;;0.00;0.00;;;27.70;99.90;;;;;;5052845;28;20478;-84
2023/06/06 11:36:39;;;;;;;0.00;0.00;;;26.60;98.60;;;;;;5058144;28;20724;-82
2023/06/06 11:39:07;;;;;;;0.00;0.00;;;27.40;99.90;;;;;;5053700;28;20947;-81
2023/06/06 11:41:43;;;;;;;0.00;0.00;;;28.30;99.70;;;;;;5071527;28;20546;-80
2023/06/06 11:44:09;;;;;;;0.00;0.00;;;28.50;98.60;;;;;;5067498;28;20487;-82
2023/06/06 11:46:53;;;;;;;0.00;0.00;;;28.20;98.80;;;;;;5072692;28;20490;-82
2023/06/06 11:49:21;;;;;;;0.00;0.00;;;27.40;97.30;;;;;;5053382;28;20824;-81
2023/06/06 11:52:00;;;;;;;0.00;0.00;;;28.10;97.30;;;;;;5073940;28;20447;-79
2023/06/06 11:54:28;;;;;;;0.00;0.00;;;28.70;97.50;;;;;;5072345;28;20446;-80
2023/06/06 11:57:03;;;;;;;0.00;0.00;;;28.50;97.70;;;;;;5070132;28;20518;-78
2023/06/06 11:59:29;;;;;;;0.00;0.00;;;28.10;95.20;;;;;;5078561;28;20827;-80
2023/06/06 12:01:58;;;;;;;0.00;0.00;;;28.60;93.70;;;;;;5068619;28;20511;-79
2023/06/06 12:04:25;;;;;;;0.00;0.00;;;28.60;94.10;;;;;;5088349;28;20487;-80
2023/06/06 12:06:53;;;;;;;0.00;0.00;;;28.90;92.00;;;;;;5059063;28;20440;-80
2023/06/06 12:09:23;;;;;;;0.00;0.00;;;29.10;95.10;;;;;;5073787;28;20431;-79
2023/06/06 12:11:59;;;;;;;0.00;0.00;;;28.20;93.90;;;;;;5049930;28;20456;-79
2023/06/06 12:14:26;;;;;;;0.10;0.00;;;28.90;93.60;;;;;;5066194;28;20503;-79
2023/06/06 12:16:53;;;;;;;0.10;0.00;;;29.00;94.20;;;;;;5065867;28;21166;-80
2023/06/06 12:19:19;;;;;;;0.00;0.00;;;28.50;94.10;;;;;;5071518;28;20973;-78
2023/06/06 12:21:47;;;;;;;0.00;0.00;;;29.10;92.30;;;;;;5077296;28;20452;-85
2023/06/06 12:24:28;;;;;;;0.10;0.00;;;28.30;91.30;;;;;;5068697;28;20440;-82
2023/06/06 12:26:59;;;;;;;0.03;0.00;;;27.90;92.70;;;;;;5078391;28;20542;-82
2023/06/06 12:29:26;;;;;;;0.00;0.00;;;28.40;93.20;;;;;;5085519;28;20995;-79
2023/06/06 12:32:13;;;;;;;0.10;0.00;;;28.80;94.50;;;;;;5074472;28;20951;-78
2023/06/06 12:34:50;;;;;;;0.00;0.00;;;28.90;92.50;;;;;;5058850;28;21157;-80
2023/06/06 12:37:16;;;;;;;0.00;0.00;;;28.90;91.00;;;;;;5085626;28;20447;-79
2023/06/06 12:39:43;;;;;;;0.10;0.00;;;28.00;92.50;;;;;;5073488;28;20471;-79
2023/06/06 12:42:14;;;;;;;0.10;0.00;;;28.20;93.50;;;;;;5070351;28;20961;-80
2023/06/06 12:44:40;;;;;;;0.10;0.00;;;28.50;93.50;;;;;;5061199;28;20505;-78
2023/06/06 12:47:06;;;;;;;0.10;0.00;;;28.50;93.90;;;;;;5056622;28;20448;-80
2023/06/06 12:49:36;;;;;;;0.03;0.00;;;28.90;92.60;;;;;;5082725;28;20447;-81
2023/06/06 12:52:01;;;;;;;0.10;0.00;;;28.50;94.10;;;;;;5052210;28;20448;-81
2023/06/06 12:54:27;;;;;;;0.00;0.00;;;28.00;92.20;;;;;;5069175;28;20473;-82
2023/06/06 12:56:52;;;;;;;0.10;0.00;;;27.70;93.40;;;;;;5078229;28;20220;-79
2023/06/06 12:59:18;;;;;;;0.10;0.00;;;28.40;94.20;;;;;;5071107;28;20274;-80
2023/06/06 13:01:43;;;;;;;0.10;0.00;;;28.20;93.30;;;;;;5069300;28;20222;-81
2023/06/06 13:04:09;;;;;;;0.00;0.00;;;28.80;94.90;;;;;;5076647;28;20331;-80
2023/06/06 13:06:36;;;;;;;0.00;0.00;;;29.10;95.30;;;;;;5063337;28;22268;-79